Time;durP1;ratioP1;P1;durP2;ratioP2;P2;SDS_P1;SDS_P2;PMS_P1;PMS_P2;Temp;Humidity;BMP_temperature;BMP_pressure;BME280_temperature;BME280_humidity;BME280_pressure;Samples;Min_cycle;Max_cycle;Signal;HPM_P1;HPM_P2
2022/01/03 00:00:24;;;;;;;18.65;3.55;;;;;;;9.75;100.00;101004.34;10525492;28;20059;-58
2022/01/03 00:05:27;;;;;;;21.20;4.78;;;;;;;9.70;100.00;101020.28;10542607;28;20061;-59
2022/01/03 00:10:29;;;;;;;21.38;5.18;;;;;;;9.68;100.00;101006.41;10542484;28;20071;-57
2022/01/03 00:15:32;;;;;;;17.05;2.95;;;;;;;9.75;100.00;101017.41;10542047;28;20424;-54
2022/01/03 00:20:34;;;;;;;23.25;3.85;;;;;;;9.62;100.00;101023.28;10541410;28;20055;-58
2022/01/03 00:25:42;;;;;;;18.50;3.67;;;;;;;9.60;100.00;101022.50;10542271;28;20052;-57
2022/01/03 00:30:45;;;;;;;21.00;3.97;;;;;;;9.55;100.00;101021.03;10523399;28;20052;-57
2022/01/03 00:35:55;;;;;;;16.25;3.65;;;;;;;9.65;100.00;101032.75;10522943;28;20055;-56
2022/01/03 00:40:59;;;;;;;24.70;4.70;;;;;;;9.64;100.00;101037.09;10541648;28;20041;-55
2022/01/03 00:46:01;;;;;;;22.25;3.67;;;;;;;9.60;100.00;101032.97;10541035;28;20078;-55
2022/01/03 00:51:04;;;;;;;24.63;5.35;;;;;;;9.67;100.00;101043.97;10540941;28;20040;-57
2022/01/03 00:56:14;;;;;;;20.25;4.05;;;;;;;9.71;100.00;101039.44;10540786;28;20056;-56
2022/01/03 01:01:19;;;;;;;27.48;4.93;;;;;;;9.62;100.00;101045.97;10540527;28;20063;-56
2022/01/03 01:06:23;;;;;;;31.95;5.63;;;;;;;9.59;100.00;101046.09;10540483;28;20044;-58
2022/01/03 01:11:28;;;;;;;19.42;3.95;;;;;;;9.61;100.00;101037.25;10540330;28;20050;-52
2022/01/03 01:16:30;;;;;;;19.90;4.72;;;;;;;9.59;100.00;101051.34;10540155;28;20051;-56
2022/01/03 01:21:33;;;;;;;21.20;4.25;;;;;;;9.61;100.00;101059.94;10539800;28;20052;-58
2022/01/03 01:32:01;;;;;;;25.30;4.43;;;;;;;9.54;100.00;101075.09;10539632;28;20047;-57
2022/01/03 01:37:03;;;;;;;27.30;3.78;;;;;;;9.60;100.00;101055.63;10540007;28;20048;-59
2022/01/03 01:42:06;;;;;;;23.33;3.83;;;;;;;9.59;100.00;101070.47;10521754;28;20059;-56
2022/01/03 01:47:08;;;;;;;15.68;2.95;;;;;;;9.56;100.00;101054.09;10539816;28;20044;-57
2022/01/03 01:52:19;;;;;;;23.58;4.22;;;;;;;9.61;100.00;101054.72;10539421;28;20062;-56
2022/01/03 01:57:23;;;;;;;21.77;3.93;;;;;;;9.61;100.00;101060.78;10521447;28;20052;-56
2022/01/03 02:02:35;;;;;;;22.02;4.13;;;;;;;9.70;97.93;101056.88;10539103;28;20060;-57
2022/01/03 02:08:08;;;;;;;23.27;3.72;;;;;;;9.67;97.13;101062.28;10539425;28;20050;-55
2022/01/03 02:13:11;;;;;;;29.23;4.78;;;;;;;9.69;97.46;101073.50;10504320;28;20492;-58
2022/01/03 02:18:14;;;;;;;24.65;5.22;;;;;;;9.72;97.64;101062.03;10538656;28;20056;-54
2022/01/03 02:23:16;;;;;;;24.27;4.22;;;;;;;9.56;100.00;101068.00;10520937;28;20052;-56
2022/01/03 02:28:22;;;;;;;21.90;4.22;;;;;;;9.59;99.01;101067.84;10538817;28;20059;-54
2022/01/03 02:33:25;;;;;;;24.45;4.53;;;;;;;9.58;98.43;101071.41;10538473;28;20530;-53
2022/01/03 02:38:27;;;;;;;26.58;4.35;;;;;;;9.51;98.73;101069.16;10538352;28;20434;-56
2022/01/03 02:43:30;;;;;;;26.83;5.70;;;;;;;9.48;99.86;101072.75;10540835;28;20052;-56
2022/01/03 02:48:32;;;;;;;19.38;3.90;;;;;;;9.44;99.41;101064.22;10545782;28;20048;-58
2022/01/03 02:53:34;;;;;;;25.00;4.10;;;;;;;9.36;100.00;101078.59;10545518;28;20056;-56
2022/01/03 02:58:37;;;;;;;21.40;5.10;;;;;;;9.44;99.09;101068.59;10545508;28;20048;-58
2022/01/03 03:03:39;;;;;;;26.73;4.28;;;;;;;9.35;99.30;101062.06;10545339;28;20048;-59
2022/01/03 03:08:42;;;;;;;20.65;3.55;;;;;;;9.45;100.00;101080.78;10545081;28;20056;-57
2022/01/03 03:13:44;;;;;;;26.98;5.45;;;;;;;9.33;100.00;101068.28;10544744;28;20050;-59
2022/01/03 03:18:47;;;;;;;26.02;4.55;;;;;;;9.42;99.78;101071.28;10544014;28;20403;-57
2022/01/03 03:23:49;;;;;;;24.65;4.18;;;;;;;9.32;100.00;101075.28;10544436;28;20052;-56
2022/01/03 03:28:52;;;;;;;34.40;6.78;;;;;;;9.32;100.00;101077.88;10544655;28;20424;-57
2022/01/03 03:33:54;;;;;;;30.20;4.35;;;;;;;9.37;98.96;101080.28;10543721;28;20489;-56
2022/01/03 03:38:56;;;;;;;38.33;7.95;;;;;;;9.43;98.87;101077.34;10543634;28;20059;-54
2022/01/03 03:43:59;;;;;;;29.00;5.80;;;;;;;9.38;99.18;101079.34;10543553;28;20508;-57
2022/01/03 03:49:01;;;;;;;17.55;3.20;;;;;;;9.45;99.76;101081.59;10543454;28;20059;-56
2022/01/03 03:54:04;;;;;;;16.63;4.63;;;;;;;9.46;98.66;101079.84;10542027;28;20048;-57
2022/01/03 03:59:06;;;;;;;25.95;6.07;;;;;;;9.40;99.66;101080.16;10542579;28;20051;-55
2022/01/03 04:04:08;;;;;;;18.67;5.00;;;;;;;9.48;97.25;101075.38;10542709;28;20048;-57
2022/01/03 04:09:11;;;;;;;24.10;5.22;;;;;;;9.47;97.97;101066.69;10543555;28;20055;-58
2022/01/03 04:14:13;;;;;;;28.95;6.20;;;;;;;9.38;99.76;101072.38;10542154;28;20059;-56
2022/01/03 04:19:15;;;;;;;30.55;5.70;;;;;;;9.37;98.99;101059.38;10542405;28;20055;-56
2022/01/03 04:24:18;;;;;;;27.88;5.30;;;;;;;9.42;97.16;101063.44;10544292;28;20056;-57
2022/01/03 04:29:20;;;;;;;24.45;5.32;;;;;;;9.48;96.87;101055.31;10541701;28;20501;-57
2022/01/03 04:34:22;;;;;;;26.63;5.78;;;;;;;9.40;97.61;101067.91;10541437;28;20399;-56
2022/01/03 04:39:25;;;;;;;31.90;5.90;;;;;;;9.35;98.87;101045.56;10541189;28;20051;-58
2022/01/03 04:44:27;;;;;;;33.15;6.78;;;;;;;9.46;97.99;101065.00;10541747;28;20060;-58
2022/01/03 04:49:30;;;;;;;24.67;5.50;;;;;;;9.51;97.08;101071.78;10540978;28;20048;-57
2022/01/03 04:54:32;;;;;;;24.75;7.10;;;;;;;9.47;96.98;101073.69;10541006;28;20051;-57
2022/01/03 04:59:35;;;;;;;30.67;6.07;;;;;;;9.44;96.58;101076.44;10540555;28;20048;-56
2022/01/03 05:04:37;;;;;;;31.92;6.22;;;;;;;9.32;98.29;101063.97;10525466;28;20059;-58
2022/01/03 05:09:40;;;;;;;25.77;5.95;;;;;;;9.46;97.50;101057.19;10540734;28;20048;-58
2022/01/03 05:14:42;;;;;;;33.08;6.07;;;;;;;9.38;99.19;101058.44;10540133;28;20400;-57
2022/01/03 05:19:45;;;;;;;23.98;5.07;;;;;;;9.40;98.51;101049.63;10540131;28;20052;-56
2022/01/03 05:24:47;;;;;;;29.58;6.22;;;;;;;9.46;99.29;101048.47;10539950;28;20399;-56
2022/01/03 05:29:49;;;;;;;27.23;5.82;;;;;;;9.46;97.96;101043.25;10539300;28;20058;-56
2022/01/03 05:34:52;;;;;;;27.13;5.53;;;;;;;9.46;98.50;101041.50;10539818;28;20052;-57
2022/01/03 05:39:54;;;;;;;22.27;5.65;;;;;;;9.35;99.06;101035.94;10539538;28;20048;-58
2022/01/03 05:44:57;;;;;;;29.02;5.00;;;;;;;9.35;99.50;101029.88;10539991;28;20058;-56
2022/01/03 05:49:59;;;;;;;28.52;5.10;;;;;;;9.45;99.89;101033.72;10539375;28;20044;-55
2022/01/03 05:55:03;;;;;;;30.17;5.90;;;;;;;9.34;100.00;101031.63;10539498;28;20048;-57
2022/01/03 06:00:07;;;;;;;28.40;6.00;;;;;;;9.36;100.00;101027.16;10521262;28;20048;-55
2022/01/03 06:05:18;;;;;;;28.67;5.82;;;;;;;9.42;98.62;101024.25;10539640;28;20044;-56
2022/01/03 06:10:21;;;;;;;26.05;4.97;;;;;;;9.42;99.57;101010.34;10539120;28;20051;-56
2022/01/03 06:15:24;;;;;;;31.45;6.35;;;;;;;9.40;98.97;101018.25;10539249;28;20067;-58
2022/01/03 06:20:27;;;;;;;26.35;4.78;;;;;;;9.51;98.97;101014.28;10544569;28;20058;-53
2022/01/03 06:25:29;;;;;;;24.08;4.85;;;;;;;9.45;98.76;101024.09;10546786;28;20063;-57
2022/01/03 06:30:32;;;;;;;30.13;6.18;;;;;;;9.46;100.00;101019.72;10528764;28;20052;-58
2022/01/03 06:35:35;;;;;;;30.70;5.47;;;;;;;9.46;98.47;101010.13;10546384;28;20044;-55
2022/01/03 06:40:37;;;;;;;20.70;4.60;;;;;;;9.42;99.04;101000.72;10546361;28;20052;-57
2022/01/03 06:45:39;;;;;;;28.02;5.88;;;;;;;9.44;99.24;100993.66;10545863;28;20055;-57
2022/01/03 06:50:42;;;;;;;26.23;5.15;;;;;;;9.45;98.49;100999.75;10545733;28;20117;-57
2022/01/03 06:55:44;;;;;;;25.67;5.78;;;;;;;9.52;99.70;101002.91;10545125;28;20052;-58
2022/01/03 07:00:47;;;;;;;26.65;5.70;;;;;;;9.52;98.77;101005.53;10544934;28;20488;-57
2022/01/03 07:05:49;;;;;;;24.63;4.95;;;;;;;9.46;97.55;101004.91;10544918;28;20075;-57
2022/01/03 07:10:52;;;;;;;35.38;5.72;;;;;;;9.52;98.32;101014.19;10544739;28;20415;-56
2022/01/03 07:21:22;;;;;;;16.98;4.85;;;;;;;9.51;98.57;100999.44;10544573;28;20506;-59
2022/01/03 07:26:26;;;;;;;25.02;4.40;;;;;;;9.59;97.94;100996.44;10544666;28;20052;-54
2022/01/03 07:31:28;;;;;;;24.60;4.78;;;;;;;9.52;97.80;100992.44;10543897;28;20059;-57
2022/01/03 07:36:31;;;;;;;29.63;4.95;;;;;;;9.43;99.34;100993.72;10543935;28;20052;-54
2022/01/03 07:41:33;;;;;;;17.50;4.45;;;;;;;9.57;98.27;100993.91;10544087;28;20048;-56
2022/01/03 07:46:35;;;;;;;21.27;4.95;;;;;;;9.43;99.88;101005.06;10543278;28;20055;-58
2022/01/03 07:51:38;;;;;;;22.38;4.78;;;;;;;9.43;99.50;101010.28;10544454;28;20076;-59
2022/01/03 07:56:40;;;;;;;18.65;4.28;;;;;;;9.38;100.00;101014.00;10543044;28;20052;-58
2022/01/03 08:01:42;;;;;;;24.33;4.82;;;;;;;9.30;100.00;101012.63;10543087;28;20058;-57
2022/01/03 08:06:45;;;;;;;22.73;4.57;;;;;;;9.39;100.00;101013.94;10543228;28;20097;-60
2022/01/03 08:11:48;;;;;;;18.63;4.53;;;;;;;9.34;100.00;101015.94;10542341;28;20044;-58
2022/01/03 08:16:50;;;;;;;22.73;5.35;;;;;;;9.27;100.00;101022.38;10542281;28;20491;-58
2022/01/03 08:21:53;;;;;;;20.92;3.33;;;;;;;9.20;100.00;101021.84;10542203;28;20070;-59
2022/01/03 08:26:55;;;;;;;17.42;3.90;;;;;;;9.29;100.00;101010.09;10523526;28;20052;-56
2022/01/03 08:31:58;;;;;;;27.92;4.85;;;;;;;9.26;100.00;101021.56;10541344;28;20051;-55
2022/01/03 08:37:00;;;;;;;21.45;3.72;;;;;;;9.25;100.00;101021.63;10541847;28;20101;-56
2022/01/03 08:42:03;;;;;;;23.05;4.55;;;;;;;9.29;100.00;101013.53;10540718;28;20055;-57
2022/01/03 08:47:06;;;;;;;19.65;4.03;;;;;;;9.19;100.00;101027.97;10541266;28;20063;-56
2022/01/03 08:52:10;;;;;;;19.75;3.60;;;;;;;9.40;100.00;101009.59;10540809;28;20101;-56
2022/01/03 08:57:12;;;;;;;22.58;4.88;;;;;;;9.35;100.00;101004.56;10540802;28;20052;-57
2022/01/03 09:02:16;;;;;;;19.83;4.75;;;;;;;9.37;100.00;100999.28;10540406;28;20055;-56
2022/01/03 09:07:18;;;;;;;19.60;4.45;;;;;;;9.39;100.00;101006.09;10540443;28;20381;-57
2022/01/03 09:12:20;;;;;;;19.02;4.53;;;;;;;9.46;100.00;101028.44;10540405;28;20403;-58
2022/01/03 09:17:23;;;;;;;21.63;3.97;;;;;;;9.54;100.00;101001.91;10521967;28;20067;-58
2022/01/03 09:22:32;;;;;;;19.67;6.03;;;;;;;9.52;100.00;100995.91;10538793;28;20055;-58
2022/01/03 09:32:55;;;;;;;18.58;3.58;;;;;;;9.44;100.00;100998.03;10539867;28;20055;-57
2022/01/03 09:37:57;;;;;;;21.90;5.03;;;;;;;9.54;100.00;100999.28;10539846;28;20140;-56
2022/01/03 09:43:01;;;;;;;23.25;4.72;;;;;;;9.68;100.00;100995.97;10539457;28;20400;-58
2022/01/03 09:48:07;;;;;;;19.60;4.82;;;;;;;9.71;98.99;100994.97;10539339;28;20491;-60
2022/01/03 09:53:09;;;;;;;18.88;4.07;;;;;;;9.70;99.32;100991.53;10558734;28;20048;-60
2022/01/03 09:58:14;;;;;;;29.27;5.20;;;;;;;9.75;100.00;100988.66;10564627;28;20063;-60
2022/01/03 10:03:17;;;;;;;20.38;4.40;;;;;;;9.61;99.82;100976.28;10547928;28;20048;-59
2022/01/03 10:08:20;;;;;;;16.27;3.97;;;;;;;9.73;99.52;100966.97;10529479;28;20549;-58
2022/01/03 10:13:22;;;;;;;19.35;4.80;;;;;;;9.65;99.13;100970.84;10547134;28;20381;-60
2022/01/03 10:18:26;;;;;;;20.90;4.30;;;;;;;9.62;100.00;100972.75;10546622;28;20523;-58
2022/01/03 10:23:29;;;;;;;25.55;4.97;;;;;;;9.82;98.67;100953.44;10547284;28;20055;-55
2022/01/03 10:28:37;;;;;;;19.77;4.82;;;;;;;9.66;99.30;100956.00;10529066;28;20048;-53
2022/01/03 10:33:39;;;;;;;25.67;5.45;;;;;;;9.72;98.46;100950.44;10546514;28;20048;-55
2022/01/03 10:38:44;;;;;;;20.45;4.93;;;;;;;9.69;98.29;100948.00;10528283;28;20058;-57
2022/01/03 10:43:49;;;;;;;23.13;4.80;;;;;;;9.78;97.01;100954.50;10546506;28;20054;-55
2022/01/03 10:48:55;;;;;;;24.85;5.13;;;;;;;9.81;97.40;100949.97;10545964;28;20059;-55
2022/01/03 10:53:58;;;;;;;20.30;4.05;;;;;;;9.85;96.79;100943.66;10528008;28;20491;-55
2022/01/03 10:59:02;;;;;;;22.40;6.10;;;;;;;9.81;96.62;100939.50;10545229;28;20506;-55
2022/01/03 11:04:04;;;;;;;16.92;4.32;;;;;;;9.82;97.68;100945.59;10544528;28;20502;-56
2022/01/03 11:14:39;;;;;;;29.90;4.88;;;;;;;9.94;96.35;100929.25;10544686;28;20047;-57
2022/01/03 11:19:45;;;;;;;30.02;5.10;;;;;;;9.99;94.72;100916.78;10545246;28;20058;-55
2022/01/03 11:24:47;;;;;;;22.98;4.85;;;;;;;10.02;94.84;100907.94;10559628;28;20496;-54
2022/01/03 11:29:50;;;;;;;24.75;5.18;;;;;;;10.10;94.77;100902.28;10545163;28;20093;-58
2022/01/03 11:34:53;;;;;;;23.27;4.68;;;;;;;10.01;95.33;100898.41;10544368;28;20060;-57
2022/01/03 11:39:56;;;;;;;23.42;5.05;;;;;;;10.55;93.88;100898.13;10525950;28;20130;-56
2022/01/03 11:44:59;;;;;;;24.80;6.32;;;;;;;10.50;92.51;100890.50;10559307;28;20480;-58
2022/01/03 11:50:05;;;;;;;22.17;5.50;;;;;;;10.34;92.35;100887.03;10543749;28;20052;-56
2022/01/03 11:55:11;;;;;;;26.33;5.18;;;;;;;10.39;92.22;100877.19;10543716;28;20044;-59
2022/01/03 12:05:42;;;;;;;25.38;4.88;;;;;;;10.79;90.10;100853.97;10543617;28;20044;-57
2022/01/03 12:10:46;;;;;;;20.55;4.32;;;;;;;10.88;90.43;100848.22;10542580;28;20055;-57
2022/01/03 12:16:04;;;;;;;19.27;4.13;;;;;;;10.49;91.78;100862.66;10541512;28;20149;-56
2022/01/03 12:21:06;;;;;;;25.13;4.82;;;;;;;10.41;94.64;100844.75;10542346;28;20076;-56
2022/01/03 12:26:17;;;;;;;15.75;4.60;;;;;;;10.47;94.46;100840.94;10541640;28;20056;-56
2022/01/03 12:31:19;;;;;;;25.30;5.53;;;;;;;10.53;95.08;100829.31;10542145;28;20126;-57
2022/01/03 12:36:23;;;;;;;21.60;3.88;;;;;;;10.40;96.48;100814.25;10557302;28;20055;-58
2022/01/03 12:41:39;;;;;;;14.10;3.70;;;;;;;10.00;96.30;100808.63;10492715;28;20383;-55
2022/01/03 12:46:41;;;;;;;17.73;4.00;;;;;;;10.35;95.99;100813.69;10491702;28;20500;-57
2022/01/03 12:51:44;;;;;;;21.00;4.93;;;;;;;10.15;94.97;100809.53;10492362;28;20044;-61
2022/01/03 12:56:46;;;;;;;22.88;4.65;;;;;;;10.25;94.39;100801.19;10491027;28;20076;-62
2022/01/03 13:01:49;;;;;;;21.88;4.68;;;;;;;10.08;93.55;100797.72;10491054;28;20071;-62
2022/01/03 13:07:00;;;;;;;20.48;4.20;;;;;;;10.11;94.57;100799.34;10491580;28;20064;-58
2022/01/03 13:12:05;;;;;;;17.57;3.90;;;;;;;9.89;93.50;100781.38;10491835;28;20076;-60
2022/01/03 13:17:09;;;;;;;12.57;3.78;;;;;;;9.95;94.70;100778.41;10491269;28;20492;-60
2022/01/03 13:22:14;;;;;;;17.08;4.22;;;;;;;9.90;95.01;100775.19;10491191;28;20489;-63
2022/01/03 13:27:20;;;;;;;20.00;4.30;;;;;;;9.96;93.93;100767.84;10509073;28;20045;-61
2022/01/03 13:32:26;;;;;;;17.00;5.20;;;;;;;9.94;93.73;100761.03;10493781;28;20155;-60
2022/01/03 13:37:29;;;;;;;13.13;3.97;;;;;;;9.97;94.35;100764.31;10489056;28;20515;-61
2022/01/03 13:53:04;;;;;;;15.55;3.17;;;;;;;10.09;92.61;100757.56;10462132;28;20378;-61
2022/01/03 13:58:12;;;;;;;15.15;3.70;;;;;;;10.01;92.29;100736.22;10462902;28;20053;-61
2022/01/03 14:03:21;;;;;;;13.68;3.13;;;;;;;10.01;91.21;100733.59;10461846;28;20386;-61
2022/01/03 14:08:38;;;;;;;10.00;2.60;;;;;;;10.08;92.26;100737.56;10463857;28;20045;-60
2022/01/03 14:13:40;;;;;;;12.57;4.13;;;;;;;9.97;92.41;100729.47;10481505;28;20107;-60
2022/01/03 14:18:53;;;;;;;13.75;3.33;;;;;;;9.96;92.94;100725.19;10462052;28;20057;-60
2022/01/03 14:23:58;;;;;;;11.73;2.92;;;;;;;10.00;91.88;100717.09;10461358;28;20477;-57
2022/01/03 14:29:12;;;;;;;8.02;2.08;;;;;;;10.00;93.11;100708.38;10460354;28;20053;-58
2022/01/03 14:34:29;;;;;;;13.73;3.28;;;;;;;9.86;92.64;100711.75;10460821;28;20478;-57
2022/01/03 14:39:49;;;;;;;22.02;4.15;;;;;;;9.96;93.33;100702.47;10460525;28;20053;-58
2022/01/03 14:45:09;;;;;;;12.55;3.22;;;;;;;9.97;92.55;100701.56;10460420;28;20057;-58
2022/01/03 14:50:13;;;;;;;12.95;2.88;;;;;;;9.89;92.74;100689.84;10461691;28;20053;-56
2022/01/03 14:55:28;;;;;;;10.95;2.55;;;;;;;9.71;93.63;100692.53;10474977;28;20045;-57
2022/01/03 15:00:32;;;;;;;13.52;3.05;;;;;;;9.75;93.04;100682.75;10458993;28;20052;-57
2022/01/03 15:05:35;;;;;;;7.18;2.15;;;;;;;9.76;93.41;100680.06;10460740;28;20053;-58
2022/01/03 15:10:37;;;;;;;9.25;2.45;;;;;;;9.60;94.83;100687.91;10459381;28;20059;-57
2022/01/03 15:15:51;;;;;;;13.07;2.90;;;;;;;9.70;93.64;100682.16;10459211;28;20412;-59
2022/01/03 15:20:54;;;;;;;8.30;2.58;;;;;;;9.57;93.32;100677.63;10458577;28;20053;-58
2022/01/03 15:25:56;;;;;;;11.50;3.65;;;;;;;9.52;95.68;100682.25;10458995;28;20068;-56
2022/01/03 15:31:00;;;;;;;7.43;2.13;;;;;;;9.49;95.81;100671.97;10463310;28;20044;-56
2022/01/03 15:36:02;;;;;;;10.15;2.55;;;;;;;9.49;94.35;100658.91;10471984;28;20055;-58
2022/01/03 15:41:04;;;;;;;7.72;2.30;;;;;;;9.39;94.33;100674.25;10458008;28;20064;-58
2022/01/03 15:46:07;;;;;;;6.22;2.03;;;;;;;9.38;96.54;100658.63;10457959;28;20401;-57
2022/01/03 15:51:09;;;;;;;10.10;2.30;;;;;;;9.35;96.58;100651.81;10458039;28;20055;-58
2022/01/03 15:56:13;;;;;;;11.23;2.45;;;;;;;9.21;95.78;100644.75;10457731;28;20068;-54
2022/01/03 16:01:15;;;;;;;9.05;1.98;;;;;;;9.06;96.68;100641.19;10458006;28;20052;-58
2022/01/03 16:06:18;;;;;;;8.23;2.08;;;;;;;8.98;96.93;100635.53;10456952;28;20436;-57
2022/01/03 16:11:20;;;;;;;5.55;1.85;;;;;;;9.00;98.42;100648.50;10457217;28;20057;-54
2022/01/03 16:16:30;;;;;;;6.95;1.95;;;;;;;9.01;98.95;100626.66;10470474;28;20543;-57
2022/01/03 16:21:32;;;;;;;8.85;1.98;;;;;;;8.98;99.23;100634.66;10456714;28;20049;-58
2022/01/03 16:26:35;;;;;;;5.85;1.90;;;;;;;8.94;98.86;100623.53;10457468;28;20052;-59
2022/01/03 16:31:38;;;;;;;10.93;2.25;;;;;;;8.98;98.85;100624.22;10456745;28;20053;-58
2022/01/03 16:36:40;;;;;;;9.10;2.10;;;;;;;9.10;98.22;100616.56;10456582;28;20053;-56
2022/01/03 16:41:43;;;;;;;6.15;2.00;;;;;;;9.02;99.78;100623.16;10456177;28;20052;-57
2022/01/03 16:46:45;;;;;;;6.40;1.60;;;;;;;9.18;99.45;100618.78;10455822;28;20053;-58
2022/01/03 16:51:48;;;;;;;9.88;2.58;;;;;;;9.02;99.47;100602.25;10456248;28;20049;-56
2022/01/03 16:56:50;;;;;;;6.18;2.38;;;;;;;9.01;99.92;100609.25;10459972;28;20060;-57
2022/01/03 17:01:52;;;;;;;10.85;2.28;;;;;;;9.03;99.54;100594.34;10455842;28;20041;-57
2022/01/03 17:06:56;;;;;;;8.10;2.70;;;;;;;8.95;100.00;100593.91;10455722;28;20556;-58
2022/01/03 17:11:58;;;;;;;4.00;1.83;;;;;;;8.78;100.00;100586.97;10455757;28;20428;-55
2022/01/03 17:17:00;;;;;;;6.10;2.47;;;;;;;8.71;100.00;100568.19;10454666;28;20056;-57
2022/01/03 17:22:04;;;;;;;7.93;2.92;;;;;;;8.83;100.00;100564.09;10455160;28;20508;-59
2022/01/03 17:27:07;;;;;;;6.82;2.42;;;;;;;8.67;100.00;100569.25;10461075;28;20512;-56
2022/01/03 17:32:11;;;;;;;5.32;3.28;;;;;;;8.70;100.00;100563.88;10463132;28;20135;-57
2022/01/03 17:37:13;;;;;;;5.85;2.83;;;;;;;8.76;100.00;100554.03;10467532;28;20136;-56
2022/01/03 17:42:16;;;;;;;7.18;3.75;;;;;;;8.68;100.00;100549.25;10470239;28;20045;-55
2022/01/03 17:47:20;;;;;;;11.38;4.13;;;;;;;8.75;100.00;100540.16;10462619;28;20599;-59
2022/01/03 17:52:26;;;;;;;4.60;3.30;;;;;;;8.69;100.00;100527.41;10462726;28;20048;-58
2022/01/03 17:57:30;;;;;;;6.68;4.32;;;;;;;8.58;100.00;100524.56;10462321;28;20049;-58
2022/01/03 18:02:32;;;;;;;13.32;4.68;;;;;;;8.66;100.00;100527.63;10462066;28;20045;-57
2022/01/03 18:07:36;;;;;;;10.45;4.80;;;;;;;8.52;100.00;100508.31;10462018;28;20056;-57
2022/01/03 18:12:44;;;;;;;9.82;5.82;;;;;;;8.48;100.00;100514.59;10461838;28;20056;-59
2022/01/03 18:17:47;;;;;;;10.60;6.97;;;;;;;8.51;100.00;100509.22;10467106;28;20049;-56
2022/01/03 18:22:49;;;;;;;9.48;5.90;;;;;;;8.44;100.00;100500.06;10468608;28;20044;-57
2022/01/03 18:27:52;;;;;;;8.57;6.38;;;;;;;8.40;100.00;100495.03;10461186;28;20053;-57
2022/01/03 18:32:54;;;;;;;11.75;6.35;;;;;;;8.40;100.00;100490.66;10461287;28;20056;-54
2022/01/03 18:37:57;;;;;;;11.13;6.57;;;;;;;8.46;100.00;100490.38;10460648;28;20057;-59
2022/01/03 18:42:59;;;;;;;7.85;6.80;;;;;;;8.38;100.00;100474.25;10460674;28;20048;-56
2022/01/03 18:48:01;;;;;;;13.93;7.80;;;;;;;8.41;100.00;100462.81;10461171;28;20056;-57
2022/01/03 18:53:04;;;;;;;10.10;7.18;;;;;;;8.43;100.00;100451.38;10460205;28;20060;-58
2022/01/03 18:58:06;;;;;;;12.27;7.53;;;;;;;8.34;100.00;100457.09;10460012;28;20045;-57
2022/01/03 19:03:09;;;;;;;15.60;8.98;;;;;;;8.28;100.00;100454.78;10471888;28;20087;-59
2022/01/03 19:08:11;;;;;;;13.95;9.52;;;;;;;8.31;100.00;100452.03;10459660;28;20049;-54
2022/01/03 19:13:15;;;;;;;11.52;9.43;;;;;;;8.24;100.00;100440.22;10460005;28;20049;-54
2022/01/03 19:18:18;;;;;;;17.13;11.00;;;;;;;8.29;100.00;100446.88;10459160;28;20045;-56
2022/01/03 19:23:20;;;;;;;14.55;10.38;;;;;;;8.23;100.00;100431.56;10459045;28;20063;-59
2022/01/03 19:28:24;;;;;;;17.83;10.18;;;;;;;8.22;100.00;100434.25;10457672;28;20057;-57
2022/01/03 19:38:34;;;;;;;16.63;10.27;;;;;;;8.20;100.00;100442.16;10459159;28;20053;-54
2022/01/03 19:43:37;;;;;;;13.10;8.90;;;;;;;8.26;100.00;100435.78;10469918;28;20474;-56
2022/01/03 19:48:40;;;;;;;12.68;9.77;;;;;;;8.24;100.00;100433.25;10457357;28;20060;-57
2022/01/03 19:53:44;;;;;;;12.00;9.68;;;;;;;8.27;100.00;100420.06;10457792;28;20500;-58
2022/01/03 19:58:46;;;;;;;12.93;9.23;;;;;;;8.40;100.00;100409.78;10457703;28;20056;-54
2022/01/03 20:03:48;;;;;;;16.02;8.25;;;;;;;8.37;100.00;100404.72;10457982;28;20052;-60
2022/01/03 20:08:51;;;;;;;12.32;9.35;;;;;;;8.43;100.00;100391.38;10457406;28;20049;-59
2022/01/03 20:13:54;;;;;;;15.05;7.88;;;;;;;8.38;100.00;100378.56;10456865;28;20386;-59
2022/01/03 20:18:56;;;;;;;11.02;7.38;;;;;;;8.35;100.00;100381.34;10456981;28;20056;-58
2022/01/03 20:23:59;;;;;;;14.77;8.00;;;;;;;8.23;100.00;100381.19;10469231;28;20053;-55
2022/01/03 20:29:01;;;;;;;10.32;6.85;;;;;;;8.33;100.00;100364.94;10456796;28;20052;-57
2022/01/03 20:34:03;;;;;;;11.45;7.35;;;;;;;8.23;100.00;100368.97;10456693;28;20051;-57
2022/01/03 20:39:06;;;;;;;10.95;6.85;;;;;;;8.21;100.00;100359.56;10456010;28;20056;-56
2022/01/03 20:44:09;;;;;;;13.60;8.57;;;;;;;8.22;100.00;100356.00;10457211;28;20076;-57
2022/01/03 20:49:11;;;;;;;11.00;7.03;;;;;;;8.26;100.00;100350.56;10456799;28;20064;-58
2022/01/03 20:54:14;;;;;;;12.18;7.22;;;;;;;8.38;100.00;100347.25;10456391;28;20049;-57
2022/01/03 20:59:16;;;;;;;9.52;6.28;;;;;;;8.31;100.00;100343.31;10457766;28;20052;-58
2022/01/03 21:04:18;;;;;;;10.57;6.22;;;;;;;8.35;100.00;100325.72;10478806;28;20128;-58
2022/01/03 21:09:22;;;;;;;14.38;7.68;;;;;;;8.18;100.00;100330.09;10464389;28;20053;-56
2022/01/03 21:14:24;;;;;;;13.45;7.43;;;;;;;8.34;100.00;100331.88;10462846;28;20072;-57
2022/01/03 21:19:27;;;;;;;13.40;7.15;;;;;;;8.39;100.00;100327.25;10464295;28;20045;-58
2022/01/03 21:24:29;;;;;;;12.23;6.80;;;;;;;8.36;100.00;100333.47;10463666;28;20056;-55
2022/01/03 21:29:32;;;;;;;13.60;7.32;;;;;;;8.18;100.00;100324.03;10463545;28;20049;-58
2022/01/03 21:34:35;;;;;;;13.25;8.07;;;;;;;8.29;100.00;100315.66;10463934;28;20048;-54
2022/01/03 21:39:37;;;;;;;10.77;6.65;;;;;;;8.52;100.00;100309.16;10462931;28;20056;-59
2022/01/03 21:44:40;;;;;;;13.38;7.28;;;;;;;8.46;100.00;100301.69;10477699;28;20049;-57
2022/01/03 21:49:42;;;;;;;11.73;7.32;;;;;;;8.49;100.00;100298.88;10462847;28;20079;-55
2022/01/03 21:54:45;;;;;;;11.75;7.20;;;;;;;8.40;100.00;100292.38;10462572;28;20045;-56
2022/01/03 21:59:48;;;;;;;21.17;8.82;;;;;;;8.47;100.00;100295.53;10462580;28;20111;-58
2022/01/03 22:04:50;;;;;;;11.70;9.27;;;;;;;8.47;100.00;100274.66;10462120;28;20053;-58
2022/01/03 22:09:52;;;;;;;16.65;8.10;;;;;;;8.58;100.00;100274.88;10462206;28;20053;-59
2022/01/03 22:14:55;;;;;;;13.95;9.57;;;;;;;8.47;100.00;100259.88;10461850;28;20045;-59
2022/01/03 22:19:57;;;;;;;17.08;8.77;;;;;;;8.65;100.00;100271.00;10460162;28;20045;-60
2022/01/03 22:24:59;;;;;;;18.17;8.25;;;;;;;8.59;100.00;100260.06;10475306;28;20061;-59
2022/01/03 22:30:04;;;;;;;14.95;9.00;;;;;;;8.37;100.00;100251.69;10461178;28;20056;-59
2022/01/03 22:35:07;;;;;;;14.95;7.80;;;;;;;8.66;100.00;100236.16;10460768;28;20490;-60
2022/01/03 22:40:10;;;;;;;13.73;8.80;;;;;;;8.62;100.00;100237.22;10460290;28;20508;-59
2022/01/03 22:45:12;;;;;;;17.60;8.70;;;;;;;8.52;100.00;100233.47;10460594;28;20056;-60
2022/01/03 22:50:16;;;;;;;14.63;8.70;;;;;;;8.47;100.00;100228.56;10459449;28;20107;-59
2022/01/03 22:55:18;;;;;;;10.98;8.27;;;;;;;8.33;100.00;100211.03;10460236;28;20489;-58
2022/01/03 23:00:21;;;;;;;13.52;8.95;;;;;;;8.51;100.00;100205.72;10459674;28;20052;-58
2022/01/03 23:05:23;;;;;;;15.35;9.55;;;;;;;8.54;100.00;100210.78;10474433;28;20045;-60
2022/01/03 23:10:26;;;;;;;15.10;8.15;;;;;;;8.64;100.00;100203.22;10459471;28;20517;-58
2022/01/03 23:15:28;;;;;;;9.82;8.32;;;;;;;8.51;100.00;100201.34;10458382;28;20049;-58
2022/01/03 23:20:31;;;;;;;11.57;8.98;;;;;;;8.43;100.00;100202.72;10459253;28;20044;-59
2022/01/03 23:25:33;;;;;;;13.13;9.40;;;;;;;8.53;100.00;100188.22;10457913;28;20516;-59
2022/01/03 23:30:35;;;;;;;12.20;9.55;;;;;;;8.51;100.00;100184.88;10458796;28;20049;-58
2022/01/03 23:35:38;;;;;;;14.65;10.30;;;;;;;8.38;100.00;100174.25;10457157;28;20049;-58
2022/01/03 23:40:40;;;;;;;22.23;10.52;;;;;;;8.33;100.00;100165.88;10458326;28;20060;-59
2022/01/03 23:45:42;;;;;;;16.10;9.70;;;;;;;8.36;100.00;100160.47;10471704;28;20051;-59
2022/01/03 23:50:45;;;;;;;11.65;7.95;;;;;;;8.46;100.00;100139.94;10457682;28;20485;-60